ENRM

Rørvik , Ryum Airport

Rørvik, Norway
METAR ENRM 171620Z 21011KT CAVOK 15/10 Q1005
Observed Flight Rules
Aug-17 @ 16:20 UTC (31 minutes ago) Visual Flight Rules
Wind Visibility Clouds
210° at 11 knots 10,000+ meters
  • Clear skies
Temperatures Readings
Current 15°C / 59°F
Dewpoint 10°C / 50°F
Humidity 72%
Altimeter 29.68" Hg
Pressure 1005 hPa
Elevation 14
METAR ENRM 171620Z 21011KT CAVOK 15/10 Q1005
Observed Flight Rules
Aug-17 @ 16:20 UTC
(31 minutes ago)
VFR
Wind Visibility
210° at 11 knots 10,000+ meters
Clouds
  • Clear skies
Temperature Dewpoint
15°C / 59°F 10°C / 50°F
Humidity Altimeter Pressure
72% 29.68" Hg 1005 hPa